Time;durP1;ratioP1;P1;durP2;ratioP2;P2;SDS_P1;SDS_P2;PMS_P1;PMS_P2;Temp;Humidity;BMP_temperature;BMP_pressure;BME280_temperature;BME280_humidity;BME280_pressure;Samples;Min_cycle;Max_cycle;Signal;HPM_P1;HPM_P2
2023/04/16 00:02:00;;;;;;;5.05;3.40;;;;;;;4.74;29.92;100751.16;7336555;19;20028;-67
2023/04/16 00:04:28;;;;;;;7.30;2.80;;;;;;;4.68;29.91;100735.50;7338315;19;20023;-65
2023/04/16 00:07:00;;;;;;;4.97;3.67;;;;;;;4.67;29.92;100741.69;7339422;19;20011;-64
2023/04/16 00:09:24;;;;;;;5.10;3.17;;;;;;;4.65;29.95;100743.50;7342082;19;20026;-65
2023/04/16 00:11:49;;;;;;;8.50;3.45;;;;;;;4.69;30.10;100742.53;7341478;19;20014;-66
2023/04/16 00:14:18;;;;;;;3.92;1.95;;;;;;;4.72;29.90;100750.38;7340194;19;20021;-70
2023/04/16 00:16:42;;;;;;;6.40;3.63;;;;;;;4.53;30.31;100757.06;7340710;19;20014;-69
2023/04/16 00:19:08;;;;;;;3.50;1.77;;;;;;;4.54;30.16;100747.38;7338742;19;20029;-68
2023/04/16 00:21:36;;;;;;;5.93;3.80;;;;;;;4.42;30.43;100747.72;7338171;19;20010;-65
2023/04/16 00:24:01;;;;;;;6.65;3.80;;;;;;;4.34;30.63;100745.31;7343336;19;20028;-67
2023/04/16 00:26:26;;;;;;;7.95;4.00;;;;;;;4.31;30.75;100746.25;7336567;19;20023;-67
2023/04/16 00:28:53;;;;;;;6.72;3.67;;;;;;;4.28;30.86;100746.38;7340127;19;20050;-66
2023/04/16 00:31:25;;;;;;;11.07;4.50;;;;;;;4.29;30.75;100744.56;7337473;19;20103;-66
2023/04/16 00:33:50;;;;;;;4.88;3.08;;;;;;;4.37;30.56;100750.53;7341884;19;20158;-68
2023/04/16 00:36:14;;;;;;;10.32;4.22;;;;;;;4.26;30.66;100752.59;7337167;19;20034;-66
2023/04/16 00:38:40;;;;;;;6.45;4.13;;;;;;;4.21;30.77;100750.06;7345927;19;20063;-69
2023/04/16 00:41:05;;;;;;;6.78;3.45;;;;;;;4.24;30.74;100750.00;7344719;19;20015;-66
2023/04/16 00:43:30;;;;;;;5.80;3.45;;;;;;;4.21;30.77;100749.22;7341476;19;20020;-66
2023/04/16 00:45:56;;;;;;;9.15;4.00;;;;;;;4.25;30.77;100750.88;7341651;19;20010;-65
2023/04/16 00:48:22;;;;;;;6.50;3.53;;;;;;;4.25;30.75;100753.50;7344477;19;20027;-65
2023/04/16 00:50:47;;;;;;;3.95;3.20;;;;;;;4.33;30.69;100748.88;7344438;19;20017;-67
2023/04/16 00:53:14;;;;;;;5.00;2.40;;;;;;;4.37;30.61;100756.66;7338057;19;20354;-66
2023/04/16 00:55:39;;;;;;;6.15;3.15;;;;;;;4.28;30.72;100749.00;7345503;19;20010;-65
2023/04/16 00:58:07;;;;;;;6.78;3.88;;;;;;;4.26;30.87;100752.59;7346093;19;20110;-66
2023/04/16 01:00:33;;;;;;;7.75;3.63;;;;;;;4.19;30.88;100735.19;7342995;19;20088;-70
2023/04/16 01:02:59;;;;;;;7.60;3.78;;;;;;;4.12;30.91;100739.78;7346949;19;20022;-70
2023/04/16 01:05:23;;;;;;;11.45;4.32;;;;;;;4.15;30.89;100741.47;7348426;19;20014;-68
2023/04/16 01:07:50;;;;;;;9.15;5.15;;;;;;;4.11;30.96;100745.09;7344117;19;20013;-66
2023/04/16 01:10:14;;;;;;;7.78;4.10;;;;;;;4.04;31.20;100740.91;7342637;19;20050;-69
2023/04/16 01:12:39;;;;;;;10.80;3.80;;;;;;;3.92;31.27;100740.34;7344482;19;20006;-69
2023/04/16 01:15:07;;;;;;;7.45;4.15;;;;;;;3.98;31.32;100740.16;7342407;19;20090;-67
2023/04/16 01:17:35;;;;;;;7.65;3.97;;;;;;;3.95;31.22;100742.88;7344241;19;20968;-68
2023/04/16 01:20:00;;;;;;;5.57;3.03;;;;;;;4.04;31.19;100738.25;7343657;19;20026;-68
2023/04/16 01:22:31;;;;;;;8.57;4.10;;;;;;;4.03;31.26;100736.53;7344850;19;20041;-66
2023/04/16 01:24:57;;;;;;;7.78;3.72;;;;;;;3.93;31.27;100747.34;7345124;19;20018;-67
2023/04/16 01:27:22;;;;;;;6.40;3.85;;;;;;;3.84;31.40;100738.78;7347281;19;20015;-69
2023/04/16 01:29:46;;;;;;;13.32;3.75;;;;;;;3.88;31.32;100735.16;7349122;19;20010;-69
2023/04/16 01:32:18;;;;;;;5.47;2.88;;;;;;;3.89;31.24;100732.50;7343633;19;20025;-67
2023/04/16 01:34:52;;;;;;;7.53;3.80;;;;;;;3.92;31.40;100742.09;7340664;19;20495;-67
2023/04/16 01:37:22;;;;;;;6.45;3.63;;;;;;;3.99;31.17;100743.66;7344778;19;20017;-67
2023/04/16 01:39:54;;;;;;;6.72;3.97;;;;;;;4.01;31.24;100736.56;7341642;19;20343;-68
2023/04/16 01:42:24;;;;;;;7.38;4.25;;;;;;;3.99;31.34;100736.59;7341944;19;20010;-67
2023/04/16 01:44:57;;;;;;;8.80;4.68;;;;;;;3.91;31.52;100735.97;7343842;19;20014;-69
2023/04/16 01:47:22;;;;;;;7.07;3.72;;;;;;;3.95;31.44;100737.59;7343496;19;20429;-68
2023/04/16 01:49:49;;;;;;;6.93;5.07;;;;;;;3.92;31.56;100734.19;7343114;19;20805;-68
2023/04/16 01:52:20;;;;;;;7.55;4.28;;;;;;;3.88;31.71;100746.59;7342497;19;20469;-67
2023/04/16 01:54:44;;;;;;;5.63;3.45;;;;;;;3.89;31.64;100737.75;7341890;19;20583;-67
2023/04/16 01:57:10;;;;;;;8.60;4.40;;;;;;;4.01;31.50;100734.81;7344023;19;20752;-64
2023/04/16 01:59:37;;;;;;;11.77;4.45;;;;;;;3.91;31.65;100741.22;7340438;19;20014;-68
2023/04/16 02:02:10;;;;;;;9.77;4.28;;;;;;;3.87;31.89;100736.94;7343310;19;20116;-66
2023/04/16 02:04:36;;;;;;;8.45;4.40;;;;;;;3.76;31.75;100741.63;7341189;19;20032;-66
2023/04/16 02:07:04;;;;;;;8.95;4.57;;;;;;;3.94;31.67;100743.78;7342435;19;20034;-67
2023/04/16 02:09:34;;;;;;;11.15;4.63;;;;;;;3.90;31.97;100747.41;7341426;19;20397;-66
2023/04/16 02:12:02;;;;;;;11.35;3.75;;;;;;;3.90;31.75;100751.81;7341057;19;20011;-69
2023/04/16 02:14:30;;;;;;;10.80;4.68;;;;;;;3.93;31.55;100743.84;7343383;19;20023;-68
2023/04/16 02:16:56;;;;;;;7.68;3.67;;;;;;;3.91;31.71;100743.88;7341221;19;20430;-66
2023/04/16 02:19:39;;;;;;;7.10;3.70;;;;;;;4.05;31.38;100745.28;7343265;19;20014;-68
2023/04/16 02:22:08;;;;;;;8.55;4.57;;;;;;;3.96;31.60;100739.31;7341285;19;20014;-68
2023/04/16 02:24:33;;;;;;;8.43;4.60;;;;;;;3.84;31.67;100747.56;7340434;19;20015;-67
2023/04/16 02:27:02;;;;;;;8.55;3.97;;;;;;;3.85;31.65;100745.78;7340326;19;20019;-67
2023/04/16 02:29:29;;;;;;;11.38;4.22;;;;;;;3.71;31.96;100747.94;7340312;19;20026;-67
2023/04/16 02:32:02;;;;;;;9.35;4.10;;;;;;;3.71;32.01;100738.25;7344273;19;20038;-66
2023/04/16 02:34:33;;;;;;;5.32;2.95;;;;;;;3.65;31.49;100741.91;7340863;19;20346;-71
2023/04/16 02:36:59;;;;;;;11.80;3.97;;;;;;;3.64;31.96;100744.59;7339522;19;20014;-70
2023/04/16 02:39:24;;;;;;;6.82;3.67;;;;;;;3.60;31.95;100735.03;7341527;19;20015;-72
2023/04/16 02:41:53;;;;;;;7.65;4.50;;;;;;;3.61;31.73;100765.78;7340943;19;20022;-67
2023/04/16 02:44:25;;;;;;;6.55;3.47;;;;;;;3.61;31.92;100739.41;7341189;19;20563;-67
2023/04/16 02:46:50;;;;;;;8.63;4.05;;;;;;;3.67;32.05;100752.41;7339586;19;20026;-67
2023/04/16 02:49:20;;;;;;;6.68;3.97;;;;;;;3.67;32.13;100762.09;7340316;19;20376;-67
2023/04/16 02:51:46;;;;;;;9.73;4.47;;;;;;;3.56;32.23;100744.78;7340697;19;20307;-67
2023/04/16 02:54:11;;;;;;;10.95;4.35;;;;;;;3.66;32.07;100755.97;7339564;19;20826;-69
2023/04/16 02:56:37;;;;;;;6.38;3.40;;;;;;;3.62;32.03;100751.66;7339381;19;20030;-71
2023/04/16 02:59:04;;;;;;;7.88;4.20;;;;;;;3.62;32.11;100749.88;7339572;19;20018;-71
2023/04/16 03:01:38;;;;;;;5.53;3.75;;;;;;;3.70;32.08;100751.47;7341415;19;20011;-68
2023/04/16 03:04:07;;;;;;;9.05;4.32;;;;;;;3.58;32.38;100760.56;7347842;19;20015;-68
2023/04/16 03:06:32;;;;;;;7.10;3.92;;;;;;;3.58;32.14;100750.88;7351094;19;20103;-69
2023/04/16 03:08:57;;;;;;;7.53;3.88;;;;;;;3.70;31.92;100746.22;7349952;19;20022;-67
2023/04/16 03:11:23;;;;;;;9.43;4.00;;;;;;;3.71;31.95;100753.22;7354910;19;20034;-66
2023/04/16 03:13:52;;;;;;;6.72;3.72;;;;;;;3.71;32.00;100753.22;7357813;19;20017;-69
2023/04/16 03:16:17;;;;;;;7.75;4.20;;;;;;;3.77;31.70;100758.31;7346885;19;20002;-71
2023/04/16 03:18:44;;;;;;;8.27;4.40;;;;;;;3.79;31.71;100752.09;7352423;19;20014;-68
2023/04/16 03:21:11;;;;;;;8.55;3.70;;;;;;;3.92;31.52;100757.94;7345624;19;20003;-66
2023/04/16 03:23:37;;;;;;;7.47;4.25;;;;;;;4.06;31.24;100754.94;7346363;19;20419;-64
2023/04/16 03:26:02;;;;;;;7.25;4.22;;;;;;;4.15;31.44;100754.66;7351534;19;20018;-63
2023/04/16 03:28:29;;;;;;;9.65;4.22;;;;;;;4.15;31.44;100760.81;7341893;19;20066;-63
2023/04/16 03:31:00;;;;;;;10.68;4.53;;;;;;;4.20;31.60;100758.03;7342755;19;20049;-62
2023/04/16 03:33:26;;;;;;;10.60;5.45;;;;;;;4.30;31.36;100764.78;7339500;19;20022;-66
2023/04/16 03:35:57;;;;;;;9.02;4.28;;;;;;;4.40;30.96;100760.13;7338969;19;20022;-65
2023/04/16 03:38:29;;;;;;;7.30;4.32;;;;;;;4.42;31.08;100751.25;7339504;19;20039;-64
2023/04/16 03:40:55;;;;;;;8.95;4.60;;;;;;;4.55;31.02;100752.63;7344276;19;20016;-64
2023/04/16 03:43:21;;;;;;;10.52;4.15;;;;;;;4.72;30.48;100768.84;7340339;19;20029;-67
2023/04/16 03:45:58;;;;;;;6.63;3.75;;;;;;;5.02;30.35;100758.25;7338655;19;20026;-65
2023/04/16 03:48:28;;;;;;;7.63;4.05;;;;;;;5.11;31.01;100755.31;7339451;19;20034;-63
2023/04/16 03:50:59;;;;;;;8.63;4.90;;;;;;;5.36;30.27;100756.28;7338673;19;20018;-65
2023/04/16 03:53:28;;;;;;;6.00;3.95;;;;;;;5.57;29.98;100748.53;7339214;19;20025;-70
2023/04/16 03:55:56;;;;;;;10.43;4.75;;;;;;;5.76;29.46;100755.81;7338119;19;20086;-65
2023/04/16 03:58:24;;;;;;;9.50;5.45;;;;;;;5.93;29.41;100749.97;7338364;19;20361;-63
2023/04/16 04:00:56;;;;;;;9.60;5.03;;;;;;;6.26;29.20;100755.84;7338993;19;20010;-65
2023/04/16 04:03:22;;;;;;;7.03;4.03;;;;;;;6.66;28.66;100754.41;7341465;19;20470;-66
2023/04/16 04:05:48;;;;;;;7.18;4.55;;;;;;;6.88;28.23;100748.19;7342475;19;20465;-64
2023/04/16 04:08:29;;;;;;;6.22;4.38;;;;;;;7.21;27.66;100747.81;7338018;19;20093;-66
2023/04/16 04:11:00;;;;;;;10.73;4.60;;;;;;;7.42;27.64;100751.38;7338110;19;20024;-66
2023/04/16 04:13:26;;;;;;;7.95;4.45;;;;;;;7.62;27.21;100749.63;7341540;19;20365;-70
2023/04/16 04:15:52;;;;;;;10.10;4.28;;;;;;;7.81;27.06;100746.19;7336420;19;20473;-70
2023/04/16 04:18:18;;;;;;;8.98;4.57;;;;;;;7.89;26.60;100749.41;7338093;19;20014;-70
2023/04/16 04:20:48;;;;;;;13.00;4.75;;;;;;;7.71;26.91;100745.72;7339061;19;20831;-70
2023/04/16 04:23:17;;;;;;;10.43;5.05;;;;;;;7.66;26.72;100753.03;7346535;19;20019;-69
2023/04/16 04:25:43;;;;;;;7.90;5.13;;;;;;;7.62;26.91;100748.78;7349532;19;20015;-69
2023/04/16 04:28:09;;;;;;;10.73;4.80;;;;;;;7.75;26.75;100747.34;7346270;19;20019;-70
2023/04/16 04:30:36;;;;;;;8.20;5.03;;;;;;;7.84;26.77;100749.59;7345679;19;20007;-71
2023/04/16 04:33:05;;;;;;;8.05;4.57;;;;;;;8.14;26.79;100749.19;7347300;19;20074;-70
2023/04/16 04:35:33;;;;;;;7.97;4.82;;;;;;;8.44;25.91;100744.34;7344307;19;20350;-65
2023/04/16 04:38:02;;;;;;;7.70;4.55;;;;;;;8.62;25.92;100748.81;7346574;19;20010;-64
2023/04/16 04:40:31;;;;;;;7.18;4.47;;;;;;;8.93;26.09;100748.25;7347850;19;20334;-63
2023/04/16 04:42:57;;;;;;;11.98;4.53;;;;;;;9.11;25.68;100750.06;7348466;19;20015;-64
2023/04/16 04:45:25;;;;;;;7.03;4.25;;;;;;;9.27;25.26;100742.19;7347738;19;20325;-68
2023/04/16 04:47:54;;;;;;;9.60;4.63;;;;;;;9.53;25.20;100736.44;7350192;19;20015;-70
2023/04/16 04:50:22;;;;;;;7.03;4.60;;;;;;;9.82;25.22;100746.47;7348516;19;20006;-70
2023/04/16 04:52:47;;;;;;;9.15;4.57;;;;;;;10.02;24.82;100739.31;7347591;19;20346;-70
2023/04/16 04:55:14;;;;;;;7.28;4.43;;;;;;;10.14;24.83;100744.00;7347228;19;20015;-64
2023/04/16 05:00:12;;;;;;;5.72;3.63;;;;;;;10.09;23.98;100743.34;7346699;19;20644;-67
2023/04/16 05:02:44;;;;;;;6.05;3.80;;;;;;;9.97;23.86;100736.00;7346462;19;20021;-69
2023/04/16 05:05:10;;;;;;;8.77;3.97;;;;;;;9.55;24.18;100741.69;7344505;19;20078;-65
2023/04/16 05:07:41;;;;;;;15.00;4.28;;;;;;;9.58;24.46;100746.88;7343924;19;20019;-64
2023/04/16 05:10:07;;;;;;;8.25;3.95;;;;;;;9.54;24.08;100746.16;7347154;19;20018;-64
2023/04/16 05:12:35;;;;;;;7.22;4.38;;;;;;;9.43;24.12;100749.34;7352366;19;20017;-64
2023/04/16 05:15:00;;;;;;;8.43;4.43;;;;;;;9.53;24.25;100746.22;7348819;19;20023;-65
2023/04/16 05:17:25;;;;;;;11.32;4.22;;;;;;;9.87;24.03;100743.59;7349847;19;20030;-70
2023/04/16 05:19:50;;;;;;;8.05;4.57;;;;;;;10.15;23.40;100737.72;7347450;19;20041;-69
2023/04/16 05:22:18;;;;;;;9.93;4.63;;;;;;;10.71;23.87;100744.53;7345098;19;20015;-70
2023/04/16 05:24:44;;;;;;;8.45;3.58;;;;;;;11.29;23.15;100740.31;7345985;19;20089;-70
2023/04/16 05:27:10;;;;;;;7.50;4.38;;;;;;;11.95;22.42;100733.84;7345429;19;20342;-66
2023/04/16 05:29:35;;;;;;;11.05;4.22;;;;;;;12.21;21.81;100732.25;7346439;19;20034;-64
2023/04/16 05:32:05;;;;;;;7.25;4.63;;;;;;;12.49;21.42;100737.66;7344750;19;20026;-65
2023/04/16 05:34:32;;;;;;;7.18;4.10;;;;;;;12.78;21.22;100738.50;7344550;19;20389;-65
2023/04/16 05:37:00;;;;;;;6.30;4.30;;;;;;;13.42;20.76;100735.25;7343791;19;20512;-64
2023/04/16 05:39:28;;;;;;;10.05;4.82;;;;;;;14.01;20.03;100714.25;7346238;19;20025;-63
2023/04/16 05:41:53;;;;;;;6.90;3.97;;;;;;;14.99;19.64;100715.44;7343662;19;20080;-67
2023/04/16 05:44:24;;;;;;;10.55;4.57;;;;;;;15.99;19.28;100715.94;7352098;19;20022;-67
2023/04/16 05:46:50;;;;;;;15.75;4.40;;;;;;;17.02;18.11;100710.44;7350029;19;20019;-65
2023/04/16 05:49:21;;;;;;;8.15;4.15;;;;;;;17.21;17.55;100704.38;7355325;19;20014;-72
2023/04/16 05:51:52;;;;;;;7.40;4.70;;;;;;;16.95;17.59;100708.34;7350690;19;20094;-71
2023/04/16 05:54:18;;;;;;;13.77;4.85;;;;;;;17.26;17.39;100712.09;7349885;19;20021;-69
2023/04/16 05:56:45;;;;;;;19.55;4.85;;;;;;;17.69;17.86;100704.00;7356881;19;20007;-70
2023/04/16 05:59:17;;;;;;;9.52;4.00;;;;;;;18.61;17.50;100711.34;7352283;19;20021;-70
2023/04/16 06:04:17;;;;;;;8.98;5.00;;;;;;;19.72;16.08;100698.53;7350840;19;20032;-66
2023/04/16 06:06:48;;;;;;;8.10;4.13;;;;;;;19.95;16.45;100701.78;7347156;19;20011;-67
2023/04/16 06:09:13;;;;;;;7.63;4.43;;;;;;;19.83;16.05;100700.25;7344240;19;20040;-65
2023/04/16 06:11:37;;;;;;;9.07;4.45;;;;;;;19.31;16.06;100701.44;7348115;19;20081;-66
2023/04/16 06:14:09;;;;;;;11.02;4.70;;;;;;;18.73;16.33;100704.00;7343478;19;20474;-66
2023/04/16 06:16:38;;;;;;;6.53;4.32;;;;;;;18.32;16.94;100696.78;7343868;19;20096;-64
2023/04/16 06:19:02;;;;;;;6.00;4.05;;;;;;;18.21;17.49;100702.25;7343099;19;20022;-65
2023/04/16 06:21:37;;;;;;;10.93;4.55;;;;;;;18.10;17.42;100706.72;7346077;19;20119;-66
2023/04/16 06:24:06;;;;;;;8.38;4.85;;;;;;;17.82;17.02;100698.44;7344614;19;20025;-68
2023/04/16 06:26:32;;;;;;;5.88;4.30;;;;;;;17.16;17.17;100695.81;7342884;19;20018;-66
2023/04/16 06:28:58;;;;;;;8.13;4.00;;;;;;;17.02;17.42;100704.19;7347394;19;20104;-70
2023/04/16 06:36:36;;;;;;;6.95;3.70;;;;;;;17.59;16.60;100690.44;7345365;19;20010;-64
2023/04/16 06:39:00;;;;;;;8.63;3.97;;;;;;;17.46;16.94;100695.13;7342796;19;20030;-64
2023/04/16 06:41:25;;;;;;;6.28;3.95;;;;;;;17.45;17.07;100682.63;7343102;19;20010;-65
2023/04/16 06:43:50;;;;;;;5.15;3.92;;;;;;;17.51;16.94;100678.53;7341048;19;20486;-65
2023/04/16 06:48:46;;;;;;;6.85;4.38;;;;;;;17.10;17.55;100682.00;7342304;19;20057;-65
2023/04/16 06:51:15;;;;;;;10.90;5.03;;;;;;;17.40;17.22;100682.13;7344440;19;20026;-65
2023/04/16 06:53:44;;;;;;;9.65;4.60;;;;;;;17.01;17.09;100681.78;7342122;19;20026;-66
2023/04/16 06:56:10;;;;;;;7.43;4.28;;;;;;;17.03;17.25;100689.72;7339529;19;20014;-64
2023/04/16 06:58:36;;;;;;;9.38;4.53;;;;;;;17.14;17.09;100688.84;7341577;19;20014;-65
2023/04/16 07:01:01;;;;;;;6.30;4.05;;;;;;;16.92;16.91;100696.00;7340082;19;20508;-67
2023/04/16 07:03:29;;;;;;;7.20;3.95;;;;;;;16.46;16.97;100698.78;7342251;19;20461;-64
2023/04/16 07:05:55;;;;;;;6.00;4.60;;;;;;;16.88;17.23;100697.22;7347911;19;20085;-65
2023/04/16 07:08:27;;;;;;;10.45;5.13;;;;;;;17.71;16.88;100694.81;7352603;19;20043;-67
2023/04/16 07:10:57;;;;;;;9.10;4.65;;;;;;;18.11;16.25;100686.00;7348738;19;20021;-67
2023/04/16 07:13:24;;;;;;;11.73;4.68;;;;;;;19.07;16.06;100685.63;7352001;19;20014;-64
2023/04/16 07:15:57;;;;;;;7.82;5.18;;;;;;;19.81;15.49;100680.56;7343135;19;20046;-66
2023/04/16 07:18:22;;;;;;;7.68;4.57;;;;;;;19.52;15.46;100678.75;7341045;19;20014;-66
2023/04/16 07:20:47;;;;;;;13.55;4.82;;;;;;;18.51;16.10;100681.53;7342376;19;20010;-69
2023/04/16 07:25:45;;;;;;;9.77;4.68;;;;;;;17.67;16.76;100684.41;7346605;19;20026;-65
2023/04/16 07:28:17;;;;;;;13.07;5.03;;;;;;;17.61;16.72;100690.28;7348912;19;20342;-65
2023/04/16 07:30:49;;;;;;;10.18;5.15;;;;;;;16.40;16.84;100698.41;7345147;19;20015;-64
2023/04/16 07:33:19;;;;;;;6.30;4.30;;;;;;;15.60;17.31;100688.44;7341256;19;20543;-66
2023/04/16 07:35:44;;;;;;;9.95;4.80;;;;;;;15.29;17.57;100688.13;7339382;19;20485;-67
2023/04/16 07:38:10;;;;;;;7.32;4.22;;;;;;;15.70;17.67;100693.97;7344091;19;20047;-67
2023/04/16 07:40:38;;;;;;;9.15;4.55;;;;;;;15.92;17.36;100679.72;7341314;19;20488;-65
2023/04/16 07:43:16;;;;;;;7.95;4.50;;;;;;;16.27;17.10;100687.75;7340859;19;20477;-65
2023/04/16 07:45:47;;;;;;;6.30;4.20;;;;;;;16.62;17.19;100679.59;7341162;19;20354;-66
2023/04/16 07:48:17;;;;;;;11.63;4.90;;;;;;;17.47;16.68;100672.56;7343975;19;20337;-67
2023/04/16 07:50:44;;;;;;;11.18;4.57;;;;;;;18.46;16.27;100670.28;7340352;19;20014;-65
2023/04/16 07:53:09;;;;;;;11.60;3.92;;;;;;;19.21;15.50;100677.94;7339780;19;20014;-67
2023/04/16 07:55:40;;;;;;;6.32;4.10;;;;;;;19.65;15.36;100675.72;7342298;19;20007;-65
2023/04/16 07:58:09;;;;;;;5.68;3.92;;;;;;;20.13;14.41;100669.41;7348889;19;20018;-65
2023/04/16 08:00:40;;;;;;;5.40;4.20;;;;;;;20.06;14.35;100665.59;7348561;19;20042;-67
2023/04/16 08:03:05;;;;;;;10.60;4.95;;;;;;;19.20;14.85;100660.00;7350101;19;20090;-66
2023/04/16 08:05:29;;;;;;;8.45;4.15;;;;;;;19.45;15.38;100657.75;7349099;19;20047;-67
2023/04/16 08:07:54;;;;;;;8.65;4.47;;;;;;;20.77;14.57;100665.97;7347964;19;20461;-68
2023/04/16 08:10:20;;;;;;;11.02;4.38;;;;;;;22.31;13.97;100652.03;7344622;19;20038;-66
2023/04/16 08:12:52;;;;;;;14.20;4.47;;;;;;;24.08;13.22;100647.22;7347816;19;20057;-66
2023/04/16 08:15:17;;;;;;;10.55;4.72;;;;;;;25.37;12.75;100644.22;7345102;19;20019;-65
2023/04/16 08:17:45;;;;;;;7.60;5.10;;;;;;;26.51;12.22;100636.75;7346772;19;20023;-65
2023/04/16 08:20:14;;;;;;;5.53;4.40;;;;;;;27.48;11.50;100640.06;7346042;19;20023;-67
2023/04/16 08:22:40;;;;;;;8.23;4.88;;;;;;;27.60;11.36;100644.03;7346789;19;20015;-66
2023/04/16 08:25:10;;;;;;;11.05;5.25;;;;;;;28.00;11.23;100645.22;7346837;19;20022;-66
2023/04/16 08:27:37;;;;;;;7.15;4.60;;;;;;;26.91;11.17;100632.66;7345420;19;20014;-66
2023/04/16 08:30:04;;;;;;;7.22;5.22;;;;;;;25.22;11.52;100631.34;7346660;19;20014;-68
2023/04/16 08:32:34;;;;;;;13.00;5.03;;;;;;;25.06;11.62;100625.97;7346687;19;20093;-67
2023/04/16 08:35:07;;;;;;;15.82;5.10;;;;;;;26.34;11.56;100625.16;7345478;19;20033;-66
2023/04/16 08:37:39;;;;;;;10.55;5.25;;;;;;;26.73;11.15;100629.47;7345495;19;20070;-67
2023/04/16 08:40:11;;;;;;;7.18;4.82;;;;;;;27.02;11.02;100626.72;7347568;19;20026;-65
2023/04/16 08:42:44;;;;;;;8.05;4.80;;;;;;;28.16;10.91;100627.63;7347264;19;20014;-67
2023/04/16 08:45:14;;;;;;;10.60;5.65;;;;;;;28.97;10.44;100620.56;7345264;19;20022;-68
2023/04/16 08:47:40;;;;;;;8.15;5.10;;;;;;;28.63;10.42;100618.69;7350470;19;20035;-67
2023/04/16 08:50:11;;;;;;;9.15;5.40;;;;;;;27.42;11.20;100597.91;7346819;19;20086;-68
2023/04/16 08:52:57;;;;;;;8.30;5.07;;;;;;;25.89;11.58;100606.09;7344326;19;20085;-66
2023/04/16 08:55:28;;;;;;;;;;;;;;;25.73;11.59;100619.94;7343791;19;20027;-67
2023/04/16 08:57:57;;;;;;;7.95;5.20;;;;;;;22.92;12.47;100623.78;7346303;19;19954;-65
2023/04/16 09:00:24;;;;;;;6.82;4.78;;;;;;;21.99;12.83;100620.09;7346019;19;20006;-66
2023/04/16 09:02:57;;;;;;;8.27;4.72;;;;;;;21.16;13.52;100624.03;7344632;19;20011;-65
2023/04/16 09:05:32;;;;;;;12.07;4.93;;;;;;;21.08;13.91;100613.13;7345744;19;20111;-67
2023/04/16 09:08:05;;;;;;;10.43;5.53;;;;;;;22.52;13.44;100601.88;7343209;19;20074;-66
2023/04/16 09:10:36;;;;;;;8.60;5.15;;;;;;;22.52;13.29;100604.59;7343394;19;20048;-67
2023/04/16 09:13:08;;;;;;;8.80;4.75;;;;;;;23.20;13.25;100602.63;7348333;19;20006;-67
2023/04/16 09:15:35;;;;;;;12.75;4.82;;;;;;;23.45;12.85;100593.47;7342183;19;20025;-66
2023/04/16 09:18:00;;;;;;;10.05;4.88;;;;;;;23.75;12.96;100591.09;7343728;19;20369;-65
2023/04/16 09:20:26;;;;;;;7.95;4.60;;;;;;;23.73;12.78;100596.72;7343795;19;20366;-65
2023/04/16 09:22:53;;;;;;;8.00;4.78;;;;;;;22.98;13.11;100605.97;7345034;19;20031;-66
2023/04/16 09:25:21;;;;;;;7.50;5.65;;;;;;;21.15;13.91;100605.22;7343711;19;20046;-66
2023/04/16 09:27:50;;;;;;;9.68;5.18;;;;;;;20.88;14.41;100616.97;7348204;19;20014;-67
2023/04/16 09:30:23;;;;;;;7.28;5.45;;;;;;;20.92;14.40;100607.50;7342973;19;20025;-66
2023/04/16 09:32:49;;;;;;;7.37;4.83;;;;;;;20.83;14.47;100611.13;7345072;19;20370;-66
2023/04/16 09:37:59;;;;;;;11.88;5.25;;;;;;;20.27;14.79;100606.69;7344450;19;20003;-65
2023/04/16 09:40:29;;;;;;;10.60;5.78;;;;;;;19.94;15.11;100600.78;7344160;19;20125;-66
2023/04/16 09:42:57;;;;;;;9.38;5.25;;;;;;;20.23;15.08;100610.66;7344389;19;20465;-66
2023/04/16 09:45:30;;;;;;;7.93;4.47;;;;;;;20.70;15.00;100599.78;7342722;19;20089;-67
2023/04/16 09:48:03;;;;;;;9.25;4.55;;;;;;;21.22;14.53;100593.63;7343683;19;20441;-65
2023/04/16 09:50:50;;;;;;;6.30;4.30;;;;;;;21.46;14.26;100584.84;7345532;19;20521;-66
2023/04/16 09:53:26;;;;;;;9.38;5.43;;;;;;;20.25;14.80;100587.88;7345037;19;20111;-66
2023/04/16 09:55:59;;;;;;;8.82;4.90;;;;;;;20.38;14.76;100592.97;7342453;19;20022;-67
2023/04/16 09:58:24;;;;;;;5.65;4.07;;;;;;;21.88;13.86;100586.88;7348844;19;20498;-65
2023/04/16 10:01:12;;;;;;;7.82;4.72;;;;;;;23.99;12.81;100593.78;7347193;19;20123;-67
2023/04/16 10:03:52;;;;;;;6.60;4.90;;;;;;;25.85;12.16;100570.09;7346043;19;20011;-68
2023/04/16 10:06:26;;;;;;;7.68;4.60;;;;;;;26.62;12.00;100589.78;7346450;19;20033;-68
2023/04/16 10:11:35;;;;;;;10.98;4.78;;;;;;;26.36;12.17;100576.59;7343383;19;20015;-66
2023/04/16 10:14:08;;;;;;;7.50;5.07;;;;;;;26.46;11.77;100562.63;7342641;19;20054;-65
2023/04/16 10:19:05;;;;;;;9.10;5.50;;;;;;;23.39;12.47;100566.91;7340187;19;20032;-66
2023/04/16 10:21:32;;;;;;;5.43;4.60;;;;;;;21.22;13.31;100571.91;7343566;19;20077;-66
2023/04/16 10:24:00;;;;;;;8.02;4.30;;;;;;;19.64;14.15;100570.41;7345522;19;20018;-65
2023/04/16 10:26:29;;;;;;;5.40;4.35;;;;;;;18.28;15.15;100577.44;7344818;19;20014;-66
2023/04/16 10:28:57;;;;;;;10.52;5.90;;;;;;;17.30;15.78;100573.38;7344685;19;20044;-66
2023/04/16 10:31:23;;;;;;;13.25;5.13;;;;;;;16.50;16.29;100571.03;7342929;19;20015;-67
2023/04/16 10:33:51;;;;;;;7.78;4.30;;;;;;;16.10;16.65;100580.63;7342333;19;20018;-65
2023/04/16 10:36:25;;;;;;;7.47;4.47;;;;;;;15.43;16.85;100565.22;7340543;19;20015;-64
2023/04/16 10:38:57;;;;;;;8.43;4.72;;;;;;;15.14;17.07;100571.94;7340569;19;20022;-67
2023/04/16 10:41:26;;;;;;;22.63;5.03;;;;;;;14.83;17.10;100582.28;7340949;19;20441;-66
2023/04/16 10:43:52;;;;;;;7.53;4.70;;;;;;;14.50;17.30;100572.22;7341648;19;20346;-66
2023/04/16 10:49:18;;;;;;;7.25;3.53;;;;;;;14.53;17.53;100580.06;7342263;19;20415;-66
2023/04/16 10:51:56;;;;;;;8.77;4.93;;;;;;;14.11;17.72;100567.84;7341336;19;20033;-67
2023/04/16 10:57:17;;;;;;;10.32;4.38;;;;;;;13.63;18.25;100574.00;7341820;19;20013;-70
2023/04/16 10:59:43;;;;;;;9.60;4.47;;;;;;;13.23;18.46;100566.00;7341840;19;20495;-67
2023/04/16 11:02:16;;;;;;;9.63;4.63;;;;;;;13.07;18.48;100568.00;7341490;19;20107;-67
2023/04/16 11:04:48;;;;;;;10.75;5.93;;;;;;;12.95;19.08;100566.13;7342708;19;20461;-68
2023/04/16 11:07:30;;;;;;;4.55;3.15;;;;;;;13.25;18.50;100565.91;7349397;19;20018;-68
2023/04/16 11:12:38;;;;;;;8.00;3.42;;;;;;;12.70;18.91;100562.41;7357956;19;20014;-69
2023/04/16 11:15:12;;;;;;;7.25;3.88;;;;;;;12.82;18.71;100557.19;7357826;19;20035;-69
2023/04/16 11:17:50;;;;;;;7.10;4.03;;;;;;;12.64;18.78;100541.38;7354154;19;20559;-68
2023/04/16 11:20:22;;;;;;;5.88;3.67;;;;;;;12.68;18.77;100553.59;7351102;19;20022;-68
2023/04/16 11:22:49;;;;;;;7.70;4.63;;;;;;;12.57;19.06;100550.78;7356829;19;20010;-68
2023/04/16 11:25:25;;;;;;;4.75;3.97;;;;;;;12.64;19.22;100543.22;7346632;19;20015;-66
2023/04/16 11:27:52;;;;;;;8.73;4.32;;;;;;;12.44;19.53;100544.50;7342502;19;20018;-72
2023/04/16 11:33:10;;;;;;;5.25;3.60;;;;;;;12.66;19.34;100534.13;7340176;19;20046;-72
2023/04/16 11:35:40;;;;;;;10.05;4.15;;;;;;;12.61;19.58;100530.03;7336742;19;20039;-71
2023/04/16 11:38:06;;;;;;;7.25;4.10;;;;;;;12.49;19.68;100520.16;7337554;19;20054;-72
2023/04/16 11:40:33;;;;;;;10.50;4.38;;;;;;;12.55;19.90;100525.94;7340271;19;20018;-73
2023/04/16 11:43:25;;;;;;;9.10;4.15;;;;;;;12.69;19.64;100535.75;7337910;19;20007;-68
2023/04/16 11:46:12;;;;;;;6.35;4.25;;;;;;;12.70;19.53;100522.25;7336469;19;20014;-66
2023/04/16 11:48:52;;;;;;;9.50;4.82;;;;;;;12.58;19.57;100520.41;7336047;19;20015;-63
2023/04/16 11:51:17;;;;;;;11.98;4.65;;;;;;;12.56;19.97;100516.97;7340551;19;20029;-65
2023/04/16 11:53:54;;;;;;;10.55;4.93;;;;;;;12.78;19.56;100504.81;7340076;19;20010;-63
2023/04/16 11:56:36;;;;;;;10.65;5.43;;;;;;;12.75;19.80;100505.06;7340380;19;20031;-63
2023/04/16 11:59:15;;;;;;;7.45;4.63;;;;;;;13.01;19.61;100517.53;7343468;19;20018;-62
2023/04/16 12:01:44;;;;;;;8.13;4.65;;;;;;;13.00;19.59;100510.44;7341895;19;20335;-61
2023/04/16 12:04:09;;;;;;;4.63;3.35;;;;;;;13.15;19.25;100509.47;7344048;19;20007;-62
2023/04/16 12:06:38;;;;;;;6.90;4.70;;;;;;;12.89;19.82;100504.97;7339940;19;20018;-62
2023/04/16 12:09:25;;;;;;;6.43;4.10;;;;;;;12.91;19.87;100492.34;7342704;19;20025;-64